Time;durP1;ratioP1;P1;durP2;ratioP2;P2;SDS_P1;SDS_P2;PMS_P1;PMS_P2;Temp;Humidity;BMP_temperature;BMP_pressure;BME280_temperature;BME280_humidity;BME280_pressure;Samples;Min_cycle;Max_cycle;Signal;HPM_P1;HPM_P2
2022/10/26 00:01:41;;;;;;;;;15.00;15.00;;;;;17.67;62.49;99067.41;6092925;28;96863;-75
2022/10/26 00:04:45;;;;;;;;;17.00;14.75;;;;;17.69;62.40;99066.06;6075359;28;96761;-76
2022/10/26 00:07:50;;;;;;;;;14.00;12.00;;;;;17.68;62.21;99069.91;6091285;28;96675;-76
2022/10/26 00:10:57;;;;;;;;;15.00;14.50;;;;;17.70;62.32;99075.06;6091106;28;96782;-73
2022/10/26 00:14:01;;;;;;;;;17.00;15.80;;;;;17.69;62.11;99071.50;6098933;28;96817;-76
2022/10/26 00:17:04;;;;;;;;;15.00;15.00;;;;;17.69;61.94;99074.25;6093326;28;96488;-76
2022/10/26 00:20:08;;;;;;;;;16.00;15.00;;;;;17.69;62.12;99078.91;6092738;28;96454;-75
2022/10/26 00:23:13;;;;;;;;;15.00;13.00;;;;;17.69;61.94;99078.91;6092002;28;97050;-75
2022/10/26 00:26:16;;;;;;;;;12.00;11.75;;;;;17.69;61.74;99081.63;6091968;28;98318;-76
2022/10/26 00:29:20;;;;;;;;;13.80;12.80;;;;;17.65;61.72;99081.31;6091712;28;96847;-75
2022/10/26 00:32:23;;;;;;;;;14.00;14.00;;;;;17.63;61.85;99088.13;6092602;28;96317;-76
2022/10/26 00:35:27;;;;;;;;;15.00;15.00;;;;;17.61;61.78;99082.09;6091405;28;96468;-75
2022/10/26 00:38:50;;;;;;;;;16.40;16.40;;;;;17.57;62.13;99087.22;6063740;28;97593;-75
2022/10/26 00:41:54;;;;;;;;;15.80;15.20;;;;;17.53;62.31;99088.84;6074353;28;96946;-72
2022/10/26 00:45:05;;;;;;;;;16.00;16.00;;;;;17.49;62.47;99086.91;6092454;28;96406;-75
2022/10/26 00:48:15;;;;;;;;;18.00;16.50;;;;;17.50;62.65;99089.34;6091085;28;96700;-76
2022/10/26 00:51:25;;;;;;;;;15.60;15.60;;;;;17.50;62.69;99093.97;6092462;28;96321;-76
2022/10/26 00:54:30;;;;;;;;;17.60;16.00;;;;;17.52;62.76;99087.19;6092197;28;96377;-76
2022/10/26 00:57:35;;;;;;;;;15.80;14.80;;;;;17.52;62.82;99087.19;6098033;28;96490;-76
2022/10/26 01:00:41;;;;;;;;;16.60;15.60;;;;;17.51;62.81;99093.72;6073394;28;97209;-75
2022/10/26 01:03:45;;;;;;;;;17.00;16.75;;;;;17.50;62.75;99110.31;6090795;28;97432;-75
2022/10/26 01:06:49;;;;;;;;;16.00;15.00;;;;;17.36;63.05;99099.06;6092167;28;96642;-75
2022/10/26 01:09:55;;;;;;;;;17.40;16.00;;;;;17.29;63.08;99093.03;6090238;28;96921;-75
2022/10/26 01:12:59;;;;;;;;;16.00;15.00;;;;;17.26;63.31;99094.34;6088074;28;96682;-75
2022/10/26 01:16:19;;;;;;;;;15.20;14.60;;;;;17.23;63.70;99099.50;6084486;28;96363;-76
2022/10/26 01:19:52;;;;;;;;;18.00;16.40;;;;;17.23;63.72;99094.06;6089592;28;98083;-75
2022/10/26 01:23:03;;;;;;;;;19.80;17.80;;;;;17.23;63.68;99105.78;6092923;28;96400;-75
2022/10/26 01:26:22;;;;;;;;;18.40;17.60;;;;;17.24;63.52;99096.53;6093852;28;96327;-76
2022/10/26 01:29:48;;;;;;;;;18.50;17.00;;;;;17.21;63.82;99094.31;6091914;28;96346;-76
2022/10/26 01:33:23;;;;;;;;;18.40;18.00;;;;;17.21;63.64;99088.03;6089845;28;96934;-76
2022/10/26 01:36:36;;;;;;;;;19.00;18.60;;;;;17.18;63.71;99092.09;6064675;28;96473;-75
2022/10/26 01:39:46;;;;;;;;;18.00;17.40;;;;;17.18;63.58;99097.56;6076369;28;96941;-75
2022/10/26 01:42:55;;;;;;;;;18.00;16.50;;;;;17.15;63.56;99089.88;6070963;28;97211;-76
2022/10/26 01:45:58;;;;;;;;;18.00;17.00;;;;;17.11;63.79;99085.22;6070103;28;96752;-73
2022/10/26 01:49:08;;;;;;;;;18.50;16.50;;;;;17.07;63.66;99079.47;6082377;28;95992;-76
2022/10/26 01:52:13;;;;;;;;;17.25;15.25;;;;;17.06;63.87;99087.88;6087307;28;96326;-75
2022/10/26 01:55:53;;;;;;;;;14.00;13.60;;;;;17.03;63.72;99086.53;6089630;28;96979;-76
2022/10/26 01:59:13;;;;;;;;;16.00;15.00;;;;;17.00;63.92;99091.66;6089817;28;96280;-76
2022/10/26 02:02:50;;;;;;;;;15.00;14.00;;;;;16.98;64.04;99089.19;6088114;28;96982;-76
2022/10/26 02:06:06;;;;;;;;;18.40;14.40;;;;;16.95;64.10;99088.91;6059385;28;97412;-76
2022/10/26 02:09:20;;;;;;;;;18.00;16.60;;;;;16.90;64.26;99081.50;6072911;28;96622;-73
2022/10/26 02:12:33;;;;;;;;;14.40;13.00;;;;;16.89;64.19;99088.03;6070623;28;96619;-76
2022/10/26 02:15:45;;;;;;;;;16.40;14.40;;;;;16.82;64.62;99088.22;6071178;28;96465;-75
2022/10/26 02:18:55;;;;;;;;;13.60;12.60;;;;;16.83;64.56;99089.03;6064890;28;99711;-75
2022/10/26 02:22:05;;;;;;;;;16.60;14.60;;;;;16.81;64.64;99085.78;6086315;28;96785;-75
2022/10/26 02:25:17;;;;;;;;;19.00;15.75;;;;;16.82;64.69;99093.66;6084835;28;96607;-76
2022/10/26 02:28:30;;;;;;;;;14.00;13.00;;;;;16.85;64.51;99086.91;6067484;28;96346;-76
2022/10/26 02:31:36;;;;;;;;;14.00;13.80;;;;;16.85;64.43;99089.63;6070273;28;96267;-73
2022/10/26 02:34:44;;;;;;;;;15.75;14.75;;;;;16.82;64.82;99088.22;6076315;28;96729;-70
2022/10/26 02:37:50;;;;;;;;;16.00;15.00;;;;;16.83;64.68;99083.59;6052420;28;96689;-76
2022/10/26 02:40:58;;;;;;;;;14.00;14.00;;;;;16.82;64.38;99080.03;6083230;28;97651;-75
2022/10/26 02:44:08;;;;;;;;;14.60;14.60;;;;;16.78;64.51;99080.81;6073553;28;96547;-76
2022/10/26 02:47:12;;;;;;;;;13.60;11.60;;;;;16.77;64.78;99081.91;6067328;28;96600;-74
2022/10/26 02:50:17;;;;;;;;;15.00;13.60;;;;;16.73;64.70;99087.03;6074017;28;96697;-75
2022/10/26 02:53:27;;;;;;;;;16.00;14.00;;;;;16.69;64.75;99087.81;6080907;28;96457;-76
2022/10/26 02:56:40;;;;;;;;;15.75;14.00;;;;;16.64;64.64;99088.59;6090702;28;96239;-76
2022/10/26 02:59:47;;;;;;;;;15.40;14.00;;;;;16.52;64.79;99076.19;6087075;28;96357;-75
2022/10/26 03:02:54;;;;;;;;;13.60;13.00;;;;;16.54;65.18;99107.50;6069999;28;95977;-76
2022/10/26 03:05:57;;;;;;;;;16.00;15.20;;;;;16.51;65.25;99099.84;6073278;28;96290;-75
2022/10/26 03:09:01;;;;;;;;;16.00;16.00;;;;;16.47;65.73;99101.41;6077227;28;97666;-75
2022/10/26 03:12:06;;;;;;;;;15.60;13.80;;;;;16.46;65.38;99102.50;6083963;28;96832;-74
2022/10/26 03:15:09;;;;;;;;;16.00;14.80;;;;;16.41;65.34;99116.06;6068044;28;96638;-74
2022/10/26 03:18:13;;;;;;;;;14.50;14.00;;;;;16.35;65.57;99106.19;6073116;28;96325;-74
2022/10/26 03:21:16;;;;;;;;;15.00;13.25;;;;;16.30;65.94;99106.94;6078529;28;96880;-75
2022/10/26 03:24:20;;;;;;;;;15.00;13.20;;;;;16.22;66.09;99110.13;6088798;28;97152;-76
2022/10/26 03:27:25;;;;;;;;;15.60;15.00;;;;;16.18;66.44;99106.22;6087380;28;96289;-76
2022/10/26 03:30:30;;;;;;;;;16.00;15.00;;;;;16.17;66.42;99107.31;6076270;28;96591;-76
2022/10/26 03:33:33;;;;;;;;;19.75;16.75;;;;;16.14;67.05;99107.81;6096034;28;96292;-76
2022/10/26 03:36:36;;;;;;;;;14.00;14.00;;;;;16.13;67.16;99113.50;6075905;28;96690;-74
2022/10/26 03:39:40;;;;;;;;;19.60;17.60;;;;;16.16;66.91;99119.28;6087408;28;96963;-75
2022/10/26 03:42:44;;;;;;;;;18.00;17.00;;;;;16.17;66.69;99122.81;6088017;28;97595;-70
2022/10/26 03:45:48;;;;;;;;;15.00;14.40;;;;;16.16;66.90;99111.13;6085994;28;96301;-75
2022/10/26 03:48:52;;;;;;;;;18.00;17.00;;;;;16.12;67.22;99117.31;6087205;28;96237;-74
2022/10/26 03:51:55;;;;;;;;;16.00;15.20;;;;;16.08;66.79;99119.69;6086273;28;96346;-75
2022/10/26 03:54:58;;;;;;;;;15.75;15.00;;;;;16.03;66.63;99117.72;6086268;28;97459;-76
2022/10/26 03:58:03;;;;;;;;;18.00;16.00;;;;;16.00;66.62;99111.97;6090003;28;96796;-73
2022/10/26 04:01:06;;;;;;;;;17.20;16.00;;;;;15.98;66.59;99104.06;6097077;28;96320;-76
2022/10/26 04:04:10;;;;;;;;;15.00;14.00;;;;;15.94;66.73;99110.25;6079504;28;96860;-75
2022/10/26 04:07:14;;;;;;;;;17.40;15.00;;;;;15.90;66.61;99106.41;6083023;28;98564;-75
2022/10/26 04:10:17;;;;;;;;;15.00;14.60;;;;;15.64;66.71;99080.75;6089151;28;96426;-76
2022/10/26 04:13:22;;;;;;;;;15.50;15.00;;;;;15.82;66.78;99110.38;6090117;28;96409;-76
2022/10/26 04:16:26;;;;;;;;;17.00;16.00;;;;;15.79;66.74;99107.31;6088176;28;97851;-76
2022/10/26 04:19:35;;;;;;;;;16.60;14.60;;;;;15.78;67.09;99111.13;6093928;28;97027;-76
2022/10/26 04:22:38;;;;;;;;;16.00;16.00;;;;;15.79;67.17;99116.31;6091496;28;96752;-74
2022/10/26 04:25:42;;;;;;;;;18.00;16.00;;;;;15.79;67.19;99116.31;6084849;28;96566;-75
2022/10/26 04:28:47;;;;;;;;;18.60;17.00;;;;;15.78;67.04;99116.56;6103690;28;96837;-75
2022/10/26 04:31:51;;;;;;;;;17.00;16.40;;;;;15.75;67.16;99114.34;6093078;28;97132;-74
2022/10/26 04:34:54;;;;;;;;;20.60;18.60;;;;;15.66;66.73;99111.22;6099426;28;96768;-76
2022/10/26 04:37:58;;;;;;;;;18.00;17.20;;;;;15.66;67.01;99116.66;6086042;28;96529;-75
2022/10/26 04:41:02;;;;;;;;;18.00;16.00;;;;;15.60;67.05;99114.94;6089956;28;96469;-75
2022/10/26 04:44:06;;;;;;;;;17.40;16.00;;;;;15.55;66.83;99118.38;6073241;28;96832;-74
2022/10/26 04:47:10;;;;;;;;;18.00;17.00;;;;;15.51;66.67;99111.81;6083109;28;96455;-75
2022/10/26 04:50:14;;;;;;;;;19.40;17.60;;;;;15.48;67.32;99112.28;6092045;28;97502;-74
2022/10/26 04:53:17;;;;;;;;;19.25;19.00;;;;;15.45;67.83;99109.22;6091959;28;96261;-76
2022/10/26 04:56:21;;;;;;;;;21.60;18.00;;;;;15.47;67.67;99123.41;6091890;28;96915;-76
2022/10/26 04:59:25;;;;;;;;;21.00;20.50;;;;;15.46;67.75;99110.88;6084497;28;96326;-75
2022/10/26 05:02:29;;;;;;;;;19.00;17.60;;;;;15.41;67.24;99118.94;6092572;28;96884;-76
2022/10/26 05:05:35;;;;;;;;;20.00;18.00;;;;;15.37;66.92;99117.78;6089281;28;96793;-75
2022/10/26 05:08:38;;;;;;;;;15.60;14.00;;;;;15.31;67.10;99121.50;6063317;28;97823;-75
2022/10/26 05:11:42;;;;;;;;;16.00;15.00;;;;;15.17;67.42;99121.81;6082955;28;96112;-75
2022/10/26 05:14:47;;;;;;;;;17.60;16.00;;;;;15.17;67.95;99121.81;6080496;28;96893;-74
2022/10/26 05:17:56;;;;;;;;;16.00;14.40;;;;;15.19;67.70;99124.31;6083067;28;99187;-73
2022/10/26 05:20:59;;;;;;;;;16.00;13.00;;;;;15.22;68.67;99134.66;6084790;28;96917;-76
2022/10/26 05:24:03;;;;;;;;;15.80;14.40;;;;;15.27;68.86;99140.19;6084127;28;97169;-75
2022/10/26 05:27:13;;;;;;;;;16.20;15.80;;;;;15.32;68.82;99139.44;6067877;28;96666;-76
2022/10/26 05:30:18;;;;;;;;;15.00;14.00;;;;;15.37;68.98;99140.34;6070223;28;96325;-72
2022/10/26 05:33:21;;;;;;;;;13.80;12.80;;;;;15.43;68.84;99144.81;6076333;28;97268;-75
2022/10/26 05:36:25;;;;;;;;;15.25;14.00;;;;;15.52;68.39;99150.69;6088871;28;96115;-76
2022/10/26 05:39:28;;;;;;;;;14.50;13.50;;;;;15.63;68.25;99157.09;6084004;28;97590;-76
2022/10/26 05:42:32;;;;;;;;;12.00;11.40;;;;;15.72;68.17;99147.47;6091067;28;96736;-74
2022/10/26 05:45:36;;;;;;;;;13.00;12.80;;;;;15.82;67.16;99151.16;6090497;28;96920;-76
2022/10/26 05:48:40;;;;;;;;;14.00;13.00;;;;;15.83;66.79;99154.72;6092770;28;97599;-76
2022/10/26 05:51:43;;;;;;;;;14.00;12.00;;;;;15.84;66.07;99145.44;6091638;28;96596;-76
2022/10/26 05:54:47;;;;;;;;;13.50;13.00;;;;;16.01;65.70;99154.41;6091647;28;96315;-75
2022/10/26 05:57:51;;;;;;;;;15.33;15.00;;;;;16.40;64.86;99172.38;6091194;28;97119;-76
2022/10/26 06:01:11;;;;;;;;;17.80;17.40;;;;;16.75;63.41;99172.03;6091562;28;96533;-76
2022/10/26 06:04:29;;;;;;;;;14.00;13.60;;;;;17.23;61.21;99178.53;6091981;28;96331;-76
2022/10/26 06:07:33;;;;;;;;;15.00;13.33;;;;;17.81;59.50;99185.03;6091709;28;96868;-75
2022/10/26 06:10:37;;;;;;;;;15.80;14.80;;;;;18.58;56.80;99175.16;6091193;28;96785;-76
2022/10/26 06:13:41;;;;;;;;;18.00;17.00;;;;;19.52;53.13;99184.16;6074342;28;96537;-71
2022/10/26 06:17:11;;;;;;;;;16.00;15.00;;;;;20.38;50.31;99193.13;6073765;28;97143;-75
2022/10/26 06:20:32;;;;;;;;;17.40;16.00;;;;;21.19;47.65;99192.81;6091329;28;96268;-75
2022/10/26 06:23:49;;;;;;;;;17.20;16.40;;;;;22.22;44.66;99199.97;6090398;28;96295;-70
2022/10/26 06:27:02;;;;;;;;;17.00;16.00;;;;;23.63;41.58;99195.44;6092342;28;96941;-76
2022/10/26 06:30:08;;;;;;;;;16.20;15.80;;;;;24.93;37.84;99189.75;6091002;28;96725;-75
2022/10/26 06:33:14;;;;;;;;;17.25;17.00;;;;;26.21;35.56;99203.00;6071596;28;99112;-75
2022/10/26 06:36:33;;;;;;;;;17.00;15.80;;;;;27.25;33.19;99213.38;6089781;28;96356;-76
2022/10/26 06:39:41;;;;;;;;;15.40;15.40;;;;;28.15;31.61;99211.59;6064567;28;96975;-74
2022/10/26 06:42:45;;;;;;;;;16.40;15.00;;;;;29.07;30.56;99209.97;6089628;28;96406;-75
2022/10/26 06:45:56;;;;;;;;;16.00;15.00;;;;;29.97;29.37;99218.59;6089672;28;96847;-75
2022/10/26 06:49:14;;;;;;;;;15.00;14.40;;;;;30.77;27.22;99221.84;6073302;28;96961;-75
2022/10/26 06:52:27;;;;;;;;;13.00;12.25;;;;;31.62;26.39;99221.78;6090432;28;96361;-74
2022/10/26 06:55:39;;;;;;;;;13.00;12.00;;;;;32.22;26.05;99225.50;6073373;28;96672;-75
2022/10/26 06:58:45;;;;;;;;;12.00;12.00;;;;;32.20;26.05;99233.44;6088326;28;96313;-74
2022/10/26 07:01:48;;;;;;;;;13.80;13.40;;;;;32.53;25.25;99233.94;6090069;28;96268;-75
2022/10/26 07:04:53;;;;;;;;;10.00;9.25;;;;;33.33;24.43;99230.75;6076671;28;96301;-73
2022/10/26 07:07:57;;;;;;;;;13.20;12.00;;;;;34.12;23.89;99228.50;6088197;28;96288;-74
2022/10/26 07:11:00;;;;;;;;;11.40;10.40;;;;;34.84;23.09;99239.06;6102342;28;97645;-74
2022/10/26 07:14:03;;;;;;;;;12.00;11.00;;;;;35.37;22.00;99237.94;6098676;28;96425;-75
2022/10/26 07:17:07;;;;;;;;;10.00;10.00;;;;;35.98;21.14;99225.53;6098586;28;96443;-75
2022/10/26 07:20:12;;;;;;;;;9.00;9.00;;;;;36.77;20.26;99230.81;6072877;28;96731;-74
2022/10/26 07:23:15;;;;;;;;;10.20;9.00;;;;;37.53;19.32;99231.84;6090559;28;96329;-74
2022/10/26 07:26:19;;;;;;;;;9.00;9.00;;;;;38.22;18.98;99236.59;6089048;28;96244;-73
2022/10/26 07:29:23;;;;;;;;;10.00;9.00;;;;;38.79;18.55;99240.31;6089980;28;96193;-74
2022/10/26 07:32:26;;;;;;;;;8.40;7.20;;;;;39.28;17.75;99236.69;6088016;28;96388;-72
2022/10/26 07:35:32;;;;;;;;;8.00;7.00;;;;;39.87;16.84;99237.81;6088756;28;96324;-74
2022/10/26 07:38:36;;;;;;;;;7.40;7.00;;;;;40.29;16.38;99244.47;6089266;28;96233;-74
2022/10/26 07:41:39;;;;;;;;;5.80;5.00;;;;;40.81;16.06;99246.16;6089800;28;96386;-70
2022/10/26 07:44:42;;;;;;;;;7.00;7.00;;;;;41.30;15.92;99236.44;6088692;28;96346;-62
2022/10/26 07:47:46;;;;;;;;;7.00;6.00;;;;;41.76;15.87;99247.28;6089544;28;96354;-64
2022/10/26 07:50:50;;;;;;;;;7.00;6.60;;;;;42.28;15.55;99242.22;6091390;28;96706;-62
2022/10/26 07:53:54;;;;;;;;;7.60;7.00;;;;;42.58;14.79;99235.69;6075781;28;96743;-63
2022/10/26 07:56:58;;;;;;;;;7.00;6.00;;;;;42.88;14.43;99237.66;6093499;28;96192;-63
2022/10/26 08:00:01;;;;;;;;;6.00;6.00;;;;;42.97;14.72;99229.41;6093637;28;96356;-63
2022/10/26 08:03:06;;;;;;;;;6.00;5.60;;;;;43.24;14.50;99231.41;6093060;28;96329;-63
2022/10/26 08:06:11;;;;;;;;;7.00;6.00;;;;;43.39;13.71;99215.72;6093587;28;96957;-63
2022/10/26 08:09:14;;;;;;;;;6.60;6.00;;;;;43.88;13.66;99234.66;6089365;28;96439;-63
2022/10/26 08:12:18;;;;;;;;;6.00;5.00;;;;;44.16;14.08;99229.56;6085584;28;96630;-63
2022/10/26 08:15:21;;;;;;;;;6.80;5.00;;;;;44.49;13.64;99233.31;6094784;28;96365;-62
2022/10/26 08:18:25;;;;;;;;;6.00;5.00;;;;;44.71;13.08;99237.28;6094441;28;96472;-63
2022/10/26 08:21:30;;;;;;;;;3.00;3.00;;;;;44.82;12.58;99232.09;6077515;28;98586;-63
2022/10/26 08:24:48;;;;;;;;;4.00;4.00;;;;;44.66;12.37;99229.28;6095018;28;96661;-62
2022/10/26 08:27:51;;;;;;;;;3.00;3.00;;;;;44.93;12.94;99221.25;6095228;28;96266;-63
2022/10/26 08:30:55;;;;;;;;;3.00;3.00;;;;;45.15;12.69;99218.69;6093378;28;96351;-63
2022/10/26 08:33:59;;;;;;;;;3.60;3.00;;;;;45.24;12.60;99218.84;6094368;28;96250;-62
2022/10/26 08:37:04;;;;;;;;;3.00;3.00;;;;;45.41;12.09;99220.44;6094598;28;97075;-64
2022/10/26 08:40:10;;;;;;;;;5.00;4.00;;;;;45.60;11.94;99224.41;6094070;28;96613;-64
2022/10/26 08:43:19;;;;;;;;;4.40;4.40;;;;;45.67;12.09;99225.00;6089952;28;96382;-64
2022/10/26 08:46:27;;;;;;;;;5.00;5.00;;;;;45.51;12.21;99227.88;6071869;28;96452;-65
2022/10/26 08:49:36;;;;;;;;;5.00;5.00;;;;;45.48;12.27;99219.44;6070861;28;96957;-65
2022/10/26 08:52:50;;;;;;;;;6.00;5.00;;;;;45.72;12.43;99220.78;6076601;28;96442;-64
2022/10/26 08:55:59;;;;;;;;;4.00;4.00;;;;;46.17;11.87;99222.75;6069699;28;96539;-63
2022/10/26 08:59:12;;;;;;;;;5.00;4.80;;;;;46.16;11.61;99221.16;6072116;28;96483;-62
2022/10/26 09:02:17;;;;;;;;;6.00;6.00;;;;;46.20;11.62;99219.00;6063920;28;96483;-63
2022/10/26 09:05:29;;;;;;;;;6.00;6.00;;;;;45.90;11.97;99221.09;6072008;28;96348;-63
2022/10/26 09:08:45;;;;;;;;;5.00;5.00;;;;;45.54;12.26;99212.75;6070394;28;96378;-64
2022/10/26 09:12:01;;;;;;;;;7.00;6.00;;;;;45.86;12.34;99211.03;6078426;28;96561;-66
2022/10/26 09:15:14;;;;;;;;;5.00;5.00;;;;;46.11;11.88;99199.69;6076820;28;96463;-62
2022/10/26 09:18:30;;;;;;;;;5.00;5.00;;;;;46.29;11.87;99225.63;6093108;28;96361;-62
2022/10/26 09:21:43;;;;;;;;;6.00;6.00;;;;;46.35;11.96;99220.16;6092997;28;96497;-62
2022/10/26 09:24:53;;;;;;;;;5.00;4.00;;;;;46.14;12.15;99210.16;6104062;28;96695;-62
2022/10/26 09:28:01;;;;;;;;;5.00;5.00;;;;;46.03;11.83;99216.22;6095798;28;96298;-62
2022/10/26 09:31:05;;;;;;;;;4.20;4.20;;;;;46.04;11.83;99223.50;6076283;28;96339;-65
2022/10/26 09:34:16;;;;;;;;;5.67;4.67;;;;;46.05;11.89;99222.25;6093526;28;96396;-63
2022/10/26 09:37:24;;;;;;;;;4.00;3.00;;;;;45.82;12.18;99221.75;6093351;28;96597;-63
2022/10/26 09:40:36;;;;;;;;;4.00;4.00;;;;;45.66;11.98;99223.38;6094045;28;96393;-63
2022/10/26 09:43:48;;;;;;;;;3.00;3.00;;;;;45.62;11.64;99201.94;6093244;28;96863;-63
2022/10/26 09:46:58;;;;;;;;;3.00;3.00;;;;;45.45;11.64;99217.50;6093113;28;96326;-63
2022/10/26 09:50:14;;;;;;;;;3.00;3.00;;;;;45.51;11.64;99216.50;6093561;28;96441;-63
2022/10/26 09:53:18;;;;;;;;;5.00;3.75;;;;;45.58;11.94;99218.34;6105456;28;96345;-63
2022/10/26 09:56:24;;;;;;;;;4.20;4.00;;;;;45.46;12.00;99214.19;6099810;28;96303;-63
2022/10/26 09:59:33;;;;;;;;;3.00;3.00;;;;;45.49;11.96;99216.16;6097947;28;96874;-63
2022/10/26 10:02:42;;;;;;;;;3.00;3.00;;;;;45.37;12.16;99218.91;6093064;28;96333;-63
2022/10/26 10:05:46;;;;;;;;;3.00;2.00;;;;;44.77;12.33;99201.34;6092668;28;96374;-63
2022/10/26 10:09:09;;;;;;;;;3.33;3.00;;;;;44.86;12.71;99219.41;6092752;28;96482;-65
2022/10/26 10:12:21;;;;;;;;;3.00;2.00;;;;;44.90;12.47;99201.44;6079174;28;96306;-67
2022/10/26 10:15:25;;;;;;;;;3.60;3.60;;;;;44.82;12.46;99217.88;6114512;28;96492;-63
2022/10/26 10:18:29;;;;;;;;;2.75;2.75;;;;;44.70;12.27;99216.56;6092302;28;96434;-64
2022/10/26 10:21:38;;;;;;;;;3.00;3.00;;;;;44.64;12.19;99214.66;6093728;28;96310;-63
2022/10/26 10:24:43;;;;;;;;;1.60;1.60;;;;;44.57;12.14;99212.00;6099148;28;96363;-66
2022/10/26 10:27:53;;;;;;;;;2.00;2.00;;;;;44.31;12.15;99213.84;6079431;28;97030;-64
2022/10/26 10:30:59;;;;;;;;;2.00;2.00;;;;;43.71;12.17;99195.22;6096698;28;96254;-62
2022/10/26 10:34:16;;;;;;;;;2.00;2.00;;;;;43.51;12.41;99210.22;6115288;28;96314;-63
2022/10/26 10:37:26;;;;;;;;;2.00;2.00;;;;;43.42;12.60;99204.28;6092434;28;96256;-66
2022/10/26 10:40:31;;;;;;;;;2.00;2.00;;;;;43.69;12.41;99206.22;6092261;28;96369;-63
2022/10/26 10:43:36;;;;;;;;;3.00;2.00;;;;;43.92;12.62;99211.84;6092795;28;96285;-66
2022/10/26 10:46:41;;;;;;;;;3.00;3.00;;;;;43.60;12.80;99201.91;6075292;28;96306;-66
2022/10/26 10:49:54;;;;;;;;;2.80;2.80;;;;;43.23;13.01;99193.72;6083523;28;96398;-64
2022/10/26 10:53:14;;;;;;;;;2.00;2.00;;;;;43.29;12.63;99191.16;6089732;28;96861;-65
2022/10/26 10:56:41;;;;;;;;;2.00;2.00;;;;;43.51;12.57;99206.56;6075505;28;96894;-64
2022/10/26 10:59:59;;;;;;;;;1.60;1.60;;;;;43.68;12.85;99194.06;6072903;28;96319;-64
2022/10/26 11:03:16;;;;;;;;;1.00;1.00;;;;;43.86;12.13;99194.50;6070592;28;96364;-64
2022/10/26 11:06:28;;;;;;;;;1.80;1.80;;;;;43.87;12.83;99193.28;6066981;28;96565;-65
2022/10/26 11:09:37;;;;;;;;;2.00;2.00;;;;;43.89;12.01;99192.84;6074798;28;96628;-63
2022/10/26 11:12:49;;;;;;;;;3.00;2.00;;;;;43.97;12.95;99197.13;6081503;28;97344;-65
2022/10/26 11:16:00;;;;;;;;;1.00;1.00;;;;;44.12;11.92;99194.75;6058946;28;99170;-63
2022/10/26 11:19:15;;;;;;;;;1.00;1.00;;;;;44.14;11.76;99186.56;6078938;28;96809;-63
2022/10/26 11:22:24;;;;;;;;;1.00;1.00;;;;;44.00;12.06;99202.72;6087490;28;97063;-65
2022/10/26 11:25:30;;;;;;;;;1.00;1.00;;;;;43.86;12.68;99196.50;6090956;28;96366;-63
2022/10/26 11:28:44;;;;;;;;;2.00;2.00;;;;;43.82;12.65;99204.31;6075703;28;96439;-66
2022/10/26 11:31:54;;;;;;;;;1.60;1.60;;;;;43.84;12.67;99201.84;6093343;28;98830;-64
2022/10/26 11:35:05;;;;;;;;;1.00;1.00;;;;;43.77;12.10;99191.44;6091221;28;96405;-63
2022/10/26 11:38:17;;;;;;;;;2.00;2.00;;;;;43.71;12.20;99186.69;6091624;28;96507;-63
2022/10/26 11:41:41;;;;;;;;;1.00;1.00;;;;;43.71;12.42;99198.84;6088309;28;96778;-63
2022/10/26 11:44:52;;;;;;;;;2.00;2.00;;;;;43.67;12.85;99198.13;6092631;28;96262;-65
2022/10/26 11:48:06;;;;;;;;;2.00;1.00;;;;;43.48;12.54;99190.41;6089533;28;96914;-64
2022/10/26 11:51:17;;;;;;;;;2.00;1.00;;;;;43.29;12.91;99191.16;6093158;28;96295;-64
2022/10/26 11:54:28;;;;;;;;;2.20;2.00;;;;;43.21;13.11;99193.31;6088871;28;96439;-63
2022/10/26 11:57:34;;;;;;;;;3.00;3.00;;;;;42.44;13.52;99187.72;6080988;28;96809;-65
2022/10/26 12:00:48;;;;;;;;;3.00;3.00;;;;;41.43;13.71;99197.09;6087026;28;96481;-64
2022/10/26 12:03:56;;;;;;;;;2.00;2.00;;;;;41.00;14.17;99189.03;6086231;28;96073;-65
2022/10/26 12:07:02;;;;;;;;;3.00;3.00;;;;;40.34;14.54;99196.00;6073786;28;98582;-64
2022/10/26 12:10:14;;;;;;;;;3.00;3.00;;;;;40.03;14.33;99197.75;6088724;28;96376;-64
2022/10/26 12:13:30;;;;;;;;;3.00;3.00;;;;;39.46;15.12;99180.25;6085146;28;97156;-65
2022/10/26 12:16:46;;;;;;;;;3.00;2.00;;;;;38.81;14.94;99193.59;6063298;28;97105;-64
2022/10/26 12:19:59;;;;;;;;;2.00;2.00;;;;;37.98;15.85;99184.56;6086712;28;96339;-66
2022/10/26 12:23:05;;;;;;;;;3.00;2.00;;;;;36.65;16.63;99194.63;6091871;28;96559;-65
2022/10/26 12:26:38;;;;;;;;;4.00;3.00;;;;;35.98;17.64;99189.06;6070891;28;97076;-64
2022/10/26 12:29:49;;;;;;;;;4.40;4.00;;;;;35.40;18.35;99188.69;6089764;28;96518;-65
2022/10/26 12:32:54;;;;;;;;;3.00;3.00;;;;;34.70;19.13;99189.19;6095162;28;96531;-64
2022/10/26 12:35:59;;;;;;;;;3.20;3.20;;;;;34.11;19.74;99184.88;6092348;28;96062;-64
2022/10/26 12:39:02;;;;;;;;;3.00;3.00;;;;;33.05;20.83;99179.78;6089416;28;96439;-66
2022/10/26 12:42:26;;;;;;;;;2.60;2.60;;;;;32.85;21.12;99181.72;6089111;28;96277;-66
2022/10/26 12:45:30;;;;;;;;;3.75;3.00;;;;;32.66;21.48;99167.69;6090961;28;96338;-68
2022/10/26 12:48:40;;;;;;;;;3.00;3.00;;;;;32.59;21.39;99184.25;6074395;28;96872;-63
2022/10/26 12:51:45;;;;;;;;;2.00;2.00;;;;;32.08;21.84;99189.66;6088668;28;96831;-70
2022/10/26 12:55:13;;;;;;;;;2.00;2.00;;;;;31.92;22.12;99182.41;6092609;28;96474;-64
2022/10/26 12:58:45;;;;;;;;;3.00;2.00;;;;;31.84;21.61;99178.63;6094153;28;96693;-65
2022/10/26 13:02:30;;;;;;;;;2.00;2.00;;;;;31.48;21.94;99171.16;6090457;28;96748;-65
2022/10/26 13:06:16;;;;;;;;;2.00;2.00;;;;;31.59;21.83;99185.44;6091951;28;96872;-65
2022/10/26 13:09:25;;;;;;;;;2.50;2.50;;;;;31.61;22.24;99181.16;6089102;28;97601;-66
2022/10/26 13:12:36;;;;;;;;;2.00;2.00;;;;;31.50;21.64;99181.97;6090794;28;96696;-65
2022/10/26 13:15:52;;;;;;;;;2.00;2.00;;;;;31.31;21.85;99177.03;6090586;28;96331;-64
2022/10/26 13:18:55;;;;;;;;;3.00;3.00;;;;;31.08;21.91;99185.09;6090154;28;97022;-63
2022/10/26 13:22:00;;;;;;;;;3.00;2.00;;;;;30.89;22.50;99185.63;6075647;28;96352;-63
2022/10/26 13:25:06;;;;;;;;;2.00;2.00;;;;;30.83;22.47;99186.22;6078609;28;96723;-62
2022/10/26 13:28:42;;;;;;;;;3.00;2.00;;;;;30.74;22.82;99185.53;6074931;28;96886;-63
2022/10/26 13:31:56;;;;;;;;;2.00;2.00;;;;;30.46;22.87;99182.59;6082935;28;96489;-61
2022/10/26 13:35:01;;;;;;;;;2.00;2.00;;;;;30.32;23.38;99191.25;6071112;28;97370;-64
2022/10/26 13:38:11;;;;;;;;;4.00;3.40;;;;;30.18;23.62;99187.97;6071509;28;96434;-65
2022/10/26 13:41:27;;;;;;;;;2.00;2.00;;;;;30.09;23.27;99176.16;6071925;28;96737;-65
2022/10/26 13:44:37;;;;;;;;;2.40;2.00;;;;;30.11;23.02;99194.09;6064509;28;96690;-64
2022/10/26 13:47:44;;;;;;;;;2.40;2.00;;;;;29.97;23.50;99188.03;6071559;28;96664;-65
2022/10/26 13:50:49;;;;;;;;;2.60;2.60;;;;;29.92;23.29;99193.81;6084620;28;96771;-64
2022/10/26 13:54:00;;;;;;;;;2.00;2.00;;;;;29.83;23.78;99187.50;6098451;28;96363;-61
2022/10/26 13:57:19;;;;;;;;;1.00;1.00;;;;;29.71;24.18;99184.66;6076872;28;96330;-64
2022/10/26 14:00:24;;;;;;;;;3.20;3.00;;;;;29.65;24.39;99188.81;6092528;28;97006;-62
2022/10/26 14:03:27;;;;;;;;;3.20;3.20;;;;;29.47;24.33;99188.13;6073046;28;98716;-64
2022/10/26 14:06:35;;;;;;;;;4.00;4.00;;;;;29.36;24.70;99194.44;6089741;28;96379;-62
2022/10/26 14:09:39;;;;;;;;;4.00;4.00;;;;;29.14;25.18;99196.34;6088793;28;96072;-64
2022/10/26 14:12:43;;;;;;;;;3.00;3.00;;;;;28.99;25.14;99188.59;6073615;28;98408;-64
2022/10/26 14:15:47;;;;;;;;;4.60;3.00;;;;;28.73;26.17;99187.94;6091485;28;96521;-60
2022/10/26 14:18:51;;;;;;;;;2.00;2.00;;;;;28.52;26.44;99195.34;6091738;28;96654;-62
2022/10/26 14:21:55;;;;;;;;;3.00;2.00;;;;;28.26;26.54;99196.25;6090834;28;96593;-63
2022/10/26 14:25:00;;;;;;;;;4.00;3.00;;;;;27.98;27.04;99201.34;6090981;28;96391;-65
2022/10/26 14:28:21;;;;;;;;;5.00;4.00;;;;;27.70;27.77;99191.75;6085834;28;96389;-64
2022/10/26 14:31:27;;;;;;;;;3.00;3.00;;;;;27.55;27.76;99197.78;6088428;28;96554;-62
2022/10/26 14:34:31;;;;;;;;;2.00;2.00;;;;;27.36;27.74;99200.84;6089559;28;96273;-64
2022/10/26 14:37:44;;;;;;;;;4.00;3.60;;;;;27.23;27.91;99201.81;6071992;28;96821;-63